Santa Maria da Vitoria, Brazil
Current Conditions -  °F | °C
As of 6:00 AM on Monday 24 Nov 2014 (Local Time) from SBMK Reporting Station
Broken Clouds Broken Clouds  
Wind Chill: 72°   Ceiling: 10000
Heat Index: 72°   Visibility: 6mi
Dew Point: 64°   Wind: 3mph
Humidity: 78%   Direction: 290°WNW
Pressure: 30.03"   Gusts: NA
Location:  13.39°S, 44.19°W
Report Text: SBMK 240900Z 29003KT 9999 SCT025 BKN100 22/18 Q1017
Loading
Personal Weather Stations






























Interactive Weather Map New forecast layout! Learn more

10-Day Weather Forecast

Advertisements
Track Severe Weather on mobile